createdAt,value
2019-02-15T00:00:32.858Z,7.50
2019-02-15T00:01:37.412Z,7.50
2019-02-15T00:02:41.869Z,7.50
2019-02-15T00:03:46.359Z,7.50
2019-02-15T00:04:50.814Z,7.50
2019-02-15T00:05:55.621Z,7.50
2019-02-15T00:07:00.097Z,7.50
2019-02-15T00:08:04.562Z,7.50
2019-02-15T00:09:09.033Z,7.50
2019-02-15T00:10:13.477Z,7.50
2019-02-15T00:11:17.958Z,7.50
2019-02-15T00:12:22.435Z,7.50
2019-02-15T00:13:26.927Z,7.50
2019-02-15T00:14:37.177Z,7.50
2019-02-15T00:15:41.654Z,7.50
2019-02-15T00:16:46.124Z,7.50
2019-02-15T00:17:52.301Z,7.50
2019-02-15T00:19:01.216Z,7.40
2019-02-15T00:20:10.121Z,7.40
2019-02-15T00:21:16.228Z,7.40
2019-02-15T00:22:20.716Z,7.40
2019-02-15T00:23:25.178Z,7.40
2019-02-15T00:24:29.649Z,7.40
2019-02-15T00:25:34.104Z,7.40
2019-02-15T00:26:38.587Z,7.40
2019-02-15T00:27:43.125Z,7.40
2019-02-15T00:28:47.703Z,7.40
2019-02-15T00:29:52.229Z,7.40
2019-02-15T00:30:56.668Z,7.30
2019-02-15T00:32:01.210Z,7.30
2019-02-15T00:33:05.738Z,7.30
2019-02-15T00:34:10.210Z,7.30
2019-02-15T00:35:14.688Z,7.30
2019-02-15T00:36:19.187Z,7.30
2019-02-15T00:37:23.736Z,7.30
2019-02-15T00:38:28.219Z,7.30
2019-02-15T00:39:32.679Z,7.30
2019-02-15T00:40:37.159Z,7.30
2019-02-15T00:41:41.616Z,7.20
2019-02-15T00:42:46.083Z,7.20
2019-02-15T00:43:50.817Z,7.20
2019-02-15T00:44:55.293Z,7.20
2019-02-15T00:46:04.117Z,7.20
2019-02-15T00:47:10.218Z,7.20
2019-02-15T00:48:18.977Z,7.10
2019-02-15T00:49:24.392Z,7.10
2019-02-15T00:50:30.569Z,7.10
2019-02-15T00:51:48.681Z,7.10
2019-02-15T00:52:54.784Z,7.10
2019-02-15T00:54:06.631Z,7.00
2019-02-15T00:55:29.133Z,7.00
2019-02-15T00:56:35.242Z,7.00
2019-02-15T00:57:50.216Z,7.00
2019-02-15T00:58:58.881Z,7.00
2019-02-15T01:00:05.251Z,6.90
2019-02-15T01:01:11.343Z,6.90
2019-02-15T01:02:17.457Z,6.90
2019-02-15T01:03:38.425Z,6.90
2019-02-15T01:04:53.443Z,6.90
2019-02-15T01:05:59.839Z,6.90
2019-02-15T01:07:09.043Z,6.90
2019-02-15T01:08:18.195Z,6.90
2019-02-15T01:09:33.208Z,6.80
2019-02-15T01:10:45.081Z,6.80
2019-02-15T01:11:54.264Z,6.80
2019-02-15T01:13:03.353Z,6.80
2019-02-15T01:14:07.806Z,6.80
2019-02-15T01:15:12.545Z,6.80
2019-02-15T01:16:17.010Z,6.80
2019-02-15T01:17:21.542Z,6.80
2019-02-15T01:18:26.054Z,6.80
2019-02-15T01:19:30.563Z,6.70
2019-02-15T01:20:35.045Z,6.70
2019-02-15T01:21:39.588Z,6.70
2019-02-15T01:22:44.046Z,6.70
2019-02-15T01:23:48.523Z,6.70
2019-02-15T01:24:53.001Z,6.70
2019-02-15T01:26:02.093Z,6.70
2019-02-15T01:27:10.863Z,6.70
2019-02-15T01:28:16.960Z,6.60
2019-02-15T01:29:29.233Z,6.60
2019-02-15T01:30:50.166Z,6.60
2019-02-15T01:32:08.389Z,6.60
2019-02-15T01:33:14.500Z,6.60
2019-02-15T01:34:23.577Z,6.60
2019-02-15T01:35:47.483Z,6.50
2019-02-15T01:36:53.678Z,6.50
2019-02-15T01:38:12.000Z,6.50
2019-02-15T01:39:30.183Z,6.50
2019-02-15T01:40:36.300Z,6.40
2019-02-15T01:41:45.182Z,6.40
2019-02-15T01:42:57.557Z,6.40
2019-02-15T01:44:06.380Z,6.40
2019-02-15T01:45:12.560Z,6.40
2019-02-15T01:46:18.675Z,6.40
2019-02-15T01:47:23.265Z,6.40
2019-02-15T01:48:27.730Z,6.40
2019-02-15T01:49:32.217Z,6.40
2019-02-15T01:50:36.666Z,6.40
2019-02-15T01:51:41.132Z,6.40
2019-02-15T01:52:45.590Z,6.40
2019-02-15T01:53:50.042Z,6.40
2019-02-15T01:54:54.517Z,6.40
2019-02-15T01:55:59.000Z,6.40
2019-02-15T01:57:03.472Z,6.40
2019-02-15T01:58:07.952Z,6.40
2019-02-15T01:59:12.406Z,6.40
2019-02-15T02:00:17.782Z,6.40
2019-02-15T02:01:23.632Z,6.40
2019-02-15T02:02:29.650Z,6.40
2019-02-15T02:03:34.117Z,6.40
2019-02-15T02:04:38.582Z,6.30
2019-02-15T02:05:43.065Z,6.30
2019-02-15T02:06:47.527Z,6.30
2019-02-15T02:07:52.033Z,6.30
2019-02-15T02:08:56.490Z,6.30
2019-02-15T02:10:01.066Z,6.30
2019-02-15T02:11:05.644Z,6.30
2019-02-15T02:12:10.405Z,6.30
2019-02-15T02:13:14.867Z,6.30
2019-02-15T02:14:19.351Z,6.30
2019-02-15T02:15:23.986Z,6.30
2019-02-15T02:16:28.552Z,6.30
2019-02-15T02:17:35.767Z,6.30
2019-02-15T02:18:40.245Z,6.30
2019-02-15T02:19:44.732Z,6.30
2019-02-15T02:20:49.294Z,6.30
2019-02-15T02:21:53.866Z,6.30
2019-02-15T02:22:58.330Z,6.30
2019-02-15T02:24:02.849Z,6.30
2019-02-15T02:25:08.142Z,6.30
2019-02-15T02:26:12.692Z,6.30
2019-02-15T02:27:17.213Z,6.30
2019-02-15T02:28:21.739Z,6.30
2019-02-15T02:29:26.183Z,6.30
2019-02-15T02:30:30.638Z,6.30
2019-02-15T02:31:35.091Z,6.30
2019-02-15T02:32:40.131Z,6.30
2019-02-15T02:33:44.611Z,6.20
2019-02-15T02:34:49.053Z,6.20
2019-02-15T02:35:53.591Z,6.20
2019-02-15T02:36:58.040Z,6.20
2019-02-15T02:38:02.530Z,6.20
2019-02-15T02:39:07.087Z,6.20
2019-02-15T02:40:11.548Z,6.20
2019-02-15T02:41:16.034Z,6.20
2019-02-15T02:42:20.492Z,6.20
2019-02-15T02:43:25.005Z,6.20
2019-02-15T02:44:29.479Z,6.20
2019-02-15T02:45:33.958Z,6.20
2019-02-15T02:46:38.490Z,6.20
2019-02-15T02:47:42.976Z,6.20
2019-02-15T02:48:47.472Z,6.20
2019-02-15T02:49:51.959Z,6.20
2019-02-15T02:50:56.483Z,6.20
2019-02-15T02:52:01.211Z,6.20
2019-02-15T02:53:05.705Z,6.20
2019-02-15T02:54:10.235Z,6.20
2019-02-15T02:55:14.715Z,6.20
2019-02-15T02:56:19.178Z,6.10
2019-02-15T02:57:23.733Z,6.20
2019-02-15T02:58:28.220Z,6.10
2019-02-15T02:59:32.717Z,6.10
2019-02-15T03:00:37.267Z,6.10
2019-02-15T03:01:41.731Z,6.10
2019-02-15T03:02:46.213Z,6.10
2019-02-15T03:03:50.679Z,6.10
2019-02-15T03:04:55.169Z,6.10
2019-02-15T03:05:59.651Z,6.10
2019-02-15T03:07:04.137Z,6.10
2019-02-15T03:08:08.636Z,6.10
2019-02-15T03:09:13.151Z,6.10
2019-02-15T03:10:20.240Z,6.10
2019-02-15T03:11:24.719Z,6.10
2019-02-15T03:12:29.197Z,6.10
2019-02-15T03:13:33.674Z,6.00
2019-02-15T03:14:38.136Z,6.00
2019-02-15T03:15:42.585Z,6.00
2019-02-15T03:16:47.088Z,6.00
2019-02-15T03:17:51.561Z,6.00
2019-02-15T03:18:56.027Z,6.00
2019-02-15T03:20:00.678Z,6.00
2019-02-15T03:21:05.198Z,6.00
2019-02-15T03:22:09.720Z,6.00
2019-02-15T03:23:14.263Z,6.00
2019-02-15T03:24:18.753Z,6.00
2019-02-15T03:25:23.272Z,6.00
2019-02-15T03:26:27.747Z,6.00
2019-02-15T03:27:32.294Z,5.90
2019-02-15T03:28:37.108Z,6.00
2019-02-15T03:29:41.646Z,6.00
2019-02-15T03:30:46.217Z,6.00
2019-02-15T03:31:50.681Z,5.90
2019-02-15T03:32:55.168Z,5.90
2019-02-15T03:33:59.805Z,6.00
2019-02-15T03:35:06.848Z,6.00
2019-02-15T03:36:12.979Z,6.00
2019-02-15T03:37:19.069Z,6.00
2019-02-15T03:38:25.167Z,6.00
2019-02-15T03:39:43.926Z,5.90
2019-02-15T03:40:48.474Z,5.90
2019-02-15T03:41:52.929Z,5.90
2019-02-15T03:42:57.399Z,5.90
2019-02-15T03:44:01.880Z,5.90
2019-02-15T03:45:08.179Z,5.90
2019-02-15T03:46:12.702Z,5.90
2019-02-15T03:47:18.793Z,5.90
2019-02-15T03:48:23.336Z,5.90
2019-02-15T03:49:27.842Z,5.90
2019-02-15T03:50:32.338Z,5.80
2019-02-15T03:51:36.894Z,5.90
2019-02-15T03:52:41.360Z,5.90
2019-02-15T03:53:45.836Z,5.80
2019-02-15T03:54:50.310Z,5.80
2019-02-15T03:55:55.259Z,5.80
2019-02-15T03:56:59.734Z,5.80
2019-02-15T03:58:04.215Z,5.80
2019-02-15T03:59:09.025Z,5.80
2019-02-15T04:00:13.870Z,5.80
2019-02-15T04:01:18.408Z,5.80
2019-02-15T04:02:22.942Z,5.80
2019-02-15T04:03:27.484Z,5.80
2019-02-15T04:04:31.948Z,5.80
2019-02-15T04:05:36.432Z,5.80
2019-02-15T04:06:40.923Z,5.80
2019-02-15T04:07:45.442Z,5.80
2019-02-15T04:08:50.089Z,5.80
2019-02-15T04:09:54.599Z,5.80
2019-02-15T04:10:59.087Z,5.80
2019-02-15T04:12:03.627Z,5.80
2019-02-15T04:13:08.075Z,5.70
2019-02-15T04:14:12.589Z,5.80
2019-02-15T04:15:17.089Z,5.80
2019-02-15T04:16:21.548Z,5.70
2019-02-15T04:17:26.132Z,5.80
2019-02-15T04:18:30.601Z,5.70
2019-02-15T04:19:35.081Z,5.70
2019-02-15T04:20:39.537Z,5.70
2019-02-15T04:21:44.019Z,5.70
2019-02-15T04:22:48.515Z,5.70
2019-02-15T04:23:53.002Z,5.70
2019-02-15T04:24:57.460Z,5.70
2019-02-15T04:26:01.999Z,5.70
2019-02-15T04:27:06.615Z,5.70
2019-02-15T04:28:11.099Z,5.70
2019-02-15T04:29:15.550Z,5.70
2019-02-15T04:30:20.120Z,5.70
2019-02-15T04:31:24.675Z,5.60
2019-02-15T04:32:29.171Z,5.60
2019-02-15T04:33:33.696Z,5.60
2019-02-15T04:34:38.168Z,5.60
2019-02-15T04:35:42.673Z,5.60
2019-02-15T04:36:47.176Z,5.60
2019-02-15T04:37:51.711Z,5.60
2019-02-15T04:38:56.218Z,5.60
2019-02-15T04:40:00.795Z,5.60
2019-02-15T04:41:05.313Z,5.60
2019-02-15T04:42:09.782Z,5.50
2019-02-15T04:43:14.251Z,5.50
2019-02-15T04:44:18.752Z,5.60
2019-02-15T04:45:23.330Z,5.60
2019-02-15T04:46:27.800Z,5.50
2019-02-15T04:47:32.275Z,5.50
2019-02-15T04:48:36.786Z,5.50
2019-02-15T04:49:41.269Z,5.50
2019-02-15T04:50:45.727Z,5.50
2019-02-15T04:51:50.187Z,5.50
2019-02-15T04:52:54.646Z,5.50
2019-02-15T04:53:59.124Z,5.50
2019-02-15T04:55:04.261Z,5.50
2019-02-15T04:56:08.728Z,5.50
2019-02-15T04:57:13.198Z,5.50
2019-02-15T04:58:17.658Z,5.50
2019-02-15T04:59:22.129Z,5.40
2019-02-15T05:00:27.381Z,5.40
2019-02-15T05:01:31.853Z,5.40
2019-02-15T05:02:36.305Z,5.40
2019-02-15T05:03:40.773Z,5.40
2019-02-15T05:04:45.240Z,5.40
2019-02-15T05:05:49.790Z,5.40
2019-02-15T05:06:54.288Z,5.40
2019-02-15T05:07:58.762Z,5.40
2019-02-15T05:09:04.454Z,5.40
2019-02-15T05:10:09.113Z,5.40
2019-02-15T05:11:13.643Z,5.40
2019-02-15T05:12:18.201Z,5.40
2019-02-15T05:13:22.693Z,5.40
2019-02-15T05:14:27.236Z,5.40
2019-02-15T05:15:31.697Z,5.40
2019-02-15T05:16:36.167Z,5.40
2019-02-15T05:17:40.627Z,5.40
2019-02-15T05:18:45.353Z,5.40
2019-02-15T05:19:49.904Z,5.40
2019-02-15T05:20:54.407Z,5.40
2019-02-15T05:21:58.851Z,5.40
2019-02-15T05:23:03.359Z,5.40
2019-02-15T05:24:07.818Z,5.50
2019-02-15T05:25:12.309Z,5.40
2019-02-15T05:26:16.780Z,5.40
2019-02-15T05:27:21.258Z,5.40
2019-02-15T05:28:25.749Z,5.40
2019-02-15T05:29:30.272Z,5.40
2019-02-15T05:30:34.808Z,5.40
2019-02-15T05:31:39.249Z,5.40
2019-02-15T05:32:43.768Z,5.40
2019-02-15T05:33:48.235Z,5.40
2019-02-15T05:34:52.771Z,5.40
2019-02-15T05:35:57.254Z,5.40
2019-02-15T05:37:01.722Z,5.40
2019-02-15T05:38:06.183Z,5.40
2019-02-15T05:39:10.641Z,5.40
2019-02-15T05:40:15.101Z,5.40
2019-02-15T05:41:19.567Z,5.40
2019-02-15T05:42:24.027Z,5.40
2019-02-15T05:43:28.512Z,5.40
2019-02-15T05:44:32.967Z,5.40
2019-02-15T05:45:37.431Z,5.40
2019-02-15T05:46:41.917Z,5.40
2019-02-15T05:47:46.454Z,5.40
2019-02-15T05:48:53.668Z,5.40
2019-02-15T05:49:58.149Z,5.30
2019-02-15T05:51:02.704Z,5.30
2019-02-15T05:52:07.261Z,5.30
2019-02-15T05:53:11.722Z,5.40
2019-02-15T05:54:16.470Z,5.40
2019-02-15T05:55:20.942Z,5.40
2019-02-15T05:56:25.416Z,5.40
2019-02-15T05:57:29.905Z,5.40
2019-02-15T05:58:34.364Z,5.40
2019-02-15T05:59:38.808Z,5.40
2019-02-15T06:00:43.314Z,5.40
2019-02-15T06:01:47.809Z,5.40
2019-02-15T06:02:52.364Z,5.40
2019-02-15T06:03:56.861Z,5.40
2019-02-15T06:05:01.429Z,5.40
2019-02-15T06:06:06.023Z,5.40
2019-02-15T06:07:10.531Z,5.40
2019-02-15T06:08:15.012Z,5.40
2019-02-15T06:09:19.484Z,5.40
2019-02-15T06:10:23.939Z,5.40
2019-02-15T06:11:28.444Z,5.40
2019-02-15T06:12:32.897Z,5.40
2019-02-15T06:13:37.427Z,5.40
2019-02-15T06:14:41.867Z,5.40
2019-02-15T06:15:46.422Z,5.40
2019-02-15T06:16:50.960Z,5.50
2019-02-15T06:17:55.437Z,5.50
2019-02-15T06:18:59.902Z,5.50
2019-02-15T06:20:05.129Z,5.50
2019-02-15T06:21:09.586Z,5.50
2019-02-15T06:22:14.071Z,5.50
2019-02-15T06:23:18.846Z,5.50
2019-02-15T06:24:23.330Z,5.50
2019-02-15T06:25:27.778Z,5.50
2019-02-15T06:26:32.277Z,5.50
2019-02-15T06:27:36.771Z,5.50
2019-02-15T06:28:41.259Z,5.50
2019-02-15T06:29:45.785Z,5.50
2019-02-15T06:30:50.370Z,5.50
2019-02-15T06:31:54.834Z,5.50
2019-02-15T06:32:59.327Z,5.50
2019-02-15T06:34:03.867Z,5.50
2019-02-15T06:35:08.460Z,5.50
2019-02-15T06:36:12.915Z,5.50
2019-02-15T06:37:17.683Z,5.50
2019-02-15T06:38:22.160Z,5.50
2019-02-15T06:39:26.626Z,5.50
2019-02-15T06:40:31.124Z,5.50
2019-02-15T06:41:35.584Z,5.50
2019-02-15T06:42:40.275Z,5.60
2019-02-15T06:43:44.734Z,5.60
2019-02-15T06:44:49.211Z,5.60
2019-02-15T06:45:53.839Z,5.60
2019-02-15T06:46:58.348Z,5.60
2019-02-15T06:48:02.800Z,5.60
2019-02-15T06:49:07.440Z,5.60
2019-02-15T06:50:11.988Z,5.60
2019-02-15T06:51:16.453Z,5.60
2019-02-15T06:52:20.996Z,5.60
2019-02-15T06:53:25.542Z,5.60
2019-02-15T06:54:30.081Z,5.60
2019-02-15T06:55:34.545Z,5.60
2019-02-15T06:56:39.052Z,5.60
2019-02-15T06:57:43.540Z,5.60
2019-02-15T06:58:55.581Z,5.60
2019-02-15T07:00:19.620Z,5.60
2019-02-15T07:01:31.418Z,5.60
2019-02-15T07:02:37.529Z,5.60
2019-02-15T07:03:55.710Z,5.70
2019-02-15T07:05:13.325Z,5.70
2019-02-15T07:06:17.782Z,5.70
2019-02-15T07:07:22.255Z,5.70
2019-02-15T07:08:26.781Z,5.70
2019-02-15T07:09:31.304Z,5.70
2019-02-15T07:10:35.908Z,5.70
2019-02-15T07:11:40.382Z,5.70
2019-02-15T07:12:44.840Z,5.70
2019-02-15T07:13:49.298Z,5.70
2019-02-15T07:14:53.799Z,5.70
2019-02-15T07:15:58.286Z,5.70
2019-02-15T07:17:03.128Z,5.70
2019-02-15T07:18:07.599Z,5.70
2019-02-15T07:19:12.067Z,5.80
2019-02-15T07:20:16.542Z,5.80
2019-02-15T07:21:21.039Z,5.80
2019-02-15T07:22:25.573Z,5.80
2019-02-15T07:23:30.049Z,5.80
2019-02-15T07:24:34.553Z,5.80
2019-02-15T07:25:39.001Z,5.80
2019-02-15T07:26:43.825Z,5.80
2019-02-15T07:27:48.276Z,5.80
2019-02-15T07:28:52.778Z,5.80
2019-02-15T07:29:57.276Z,5.80
2019-02-15T07:31:01.792Z,5.80
2019-02-15T07:32:06.364Z,5.80
2019-02-15T07:33:10.825Z,5.80
2019-02-15T07:34:15.315Z,5.80
2019-02-15T07:35:19.858Z,5.90
2019-02-15T07:36:24.317Z,5.90
2019-02-15T07:37:28.815Z,5.90
2019-02-15T07:38:34.189Z,5.90
2019-02-15T07:39:38.743Z,5.90
2019-02-15T07:40:43.245Z,5.90
2019-02-15T07:41:48.040Z,5.90
2019-02-15T07:42:52.647Z,5.90
2019-02-15T07:43:57.179Z,5.90
2019-02-15T07:45:01.690Z,5.90
2019-02-15T07:46:06.198Z,6.00
2019-02-15T07:47:10.706Z,6.00
2019-02-15T07:48:15.179Z,6.00
2019-02-15T07:49:26.701Z,6.00
2019-02-15T07:50:25.922Z,6.00
2019-02-15T07:51:30.389Z,6.00
2019-02-15T07:52:34.862Z,6.00
2019-02-15T07:53:39.342Z,6.00
2019-02-15T07:54:43.863Z,6.00
2019-02-15T07:55:48.364Z,6.00
2019-02-15T07:56:52.831Z,6.10
2019-02-15T07:57:57.278Z,6.10
2019-02-15T07:59:01.781Z,6.10
2019-02-15T08:00:14.776Z,6.10
2019-02-15T08:01:19.242Z,6.10
2019-02-15T08:02:23.714Z,6.10
2019-02-15T08:03:28.208Z,6.10
2019-02-15T08:04:32.686Z,6.20
2019-02-15T08:05:37.142Z,6.20
2019-02-15T08:06:41.647Z,6.20
2019-02-15T08:07:46.144Z,6.20
2019-02-15T08:08:50.598Z,6.20
2019-02-15T08:09:55.053Z,6.20
2019-02-15T08:10:59.509Z,6.20
2019-02-15T08:12:04.097Z,6.20
2019-02-15T08:13:08.631Z,6.30
2019-02-15T08:14:15.104Z,6.30
2019-02-15T08:15:19.337Z,6.30
2019-02-15T08:16:23.844Z,6.30
2019-02-15T08:17:28.310Z,6.30
2019-02-15T08:18:32.801Z,6.30
2019-02-15T08:19:37.267Z,6.30
2019-02-15T08:20:42.064Z,6.40
2019-02-15T08:21:46.537Z,6.40
2019-02-15T08:22:51.007Z,6.40
2019-02-15T08:23:55.467Z,6.40
2019-02-15T08:24:59.939Z,6.40
2019-02-15T08:26:04.586Z,6.50
2019-02-15T08:27:09.086Z,6.40
2019-02-15T08:28:13.565Z,6.50
2019-02-15T08:29:18.997Z,6.50
2019-02-15T08:30:23.488Z,6.50
2019-02-15T08:31:27.941Z,6.50
2019-02-15T08:32:34.462Z,6.60
2019-02-15T08:33:38.599Z,6.60
2019-02-15T08:34:43.113Z,6.60
2019-02-15T08:35:47.606Z,6.60
2019-02-15T08:36:52.090Z,6.70
2019-02-15T08:37:56.635Z,6.70
2019-02-15T08:39:01.098Z,6.70
2019-02-15T08:40:08.322Z,6.70
2019-02-15T08:41:12.828Z,6.80
2019-02-15T08:42:17.316Z,6.80
2019-02-15T08:43:21.789Z,6.80
2019-02-15T08:44:26.261Z,6.80
2019-02-15T08:45:30.775Z,6.80
2019-02-15T08:46:35.306Z,6.80
2019-02-15T08:47:40.127Z,6.90
2019-02-15T08:48:46.530Z,6.90
2019-02-15T08:49:50.763Z,6.90
2019-02-15T08:50:55.337Z,6.90
2019-02-15T08:52:00.077Z,7.00
2019-02-15T08:53:04.564Z,7.00
2019-02-15T08:54:09.035Z,7.00
2019-02-15T08:55:13.518Z,7.00
2019-02-15T08:56:17.972Z,7.10
2019-02-15T08:57:22.449Z,7.10
2019-02-15T08:58:26.955Z,7.10
2019-02-15T08:59:31.418Z,7.10
2019-02-15T09:00:35.892Z,7.10
2019-02-15T09:01:40.328Z,7.20
2019-02-15T09:02:44.839Z,7.20
2019-02-15T09:03:49.305Z,7.20
2019-02-15T09:04:53.753Z,7.20
2019-02-15T09:05:58.691Z,7.30
2019-02-15T09:07:03.146Z,7.30
2019-02-15T09:08:07.622Z,7.30
2019-02-15T09:09:12.347Z,7.40
2019-02-15T09:10:16.862Z,7.40
2019-02-15T09:11:21.473Z,7.40
2019-02-15T09:12:25.927Z,7.40
2019-02-15T09:13:30.395Z,7.40
2019-02-15T09:14:34.900Z,7.50
2019-02-15T09:15:39.369Z,7.50
2019-02-15T09:16:43.831Z,7.50
2019-02-15T09:17:48.297Z,7.60
2019-02-15T09:18:53.096Z,7.60
2019-02-15T09:19:57.569Z,7.60
2019-02-15T09:21:02.042Z,7.60
2019-02-15T09:22:06.589Z,7.60
2019-02-15T09:23:12.308Z,7.70
2019-02-15T09:24:16.929Z,7.70
2019-02-15T09:25:21.421Z,7.70
2019-02-15T09:26:25.943Z,7.70
2019-02-15T09:27:32.053Z,7.80
2019-02-15T09:28:43.942Z,7.80
2019-02-15T09:29:48.415Z,7.80
2019-02-15T09:30:53.384Z,7.90
2019-02-15T09:31:58.115Z,7.90
2019-02-15T09:33:02.579Z,8.00
2019-02-15T09:34:07.051Z,8.00
2019-02-15T09:35:12.276Z,8.10
2019-02-15T09:36:16.770Z,8.10
2019-02-15T09:37:21.246Z,8.20
2019-02-15T09:38:25.699Z,8.30
2019-02-15T09:39:30.161Z,8.40
2019-02-15T09:40:34.648Z,8.50
2019-02-15T09:41:39.185Z,8.60
2019-02-15T09:42:43.698Z,8.80
2019-02-15T09:43:48.198Z,8.90
2019-02-15T09:44:52.692Z,9.10
2019-02-15T09:45:57.155Z,9.30
2019-02-15T09:47:01.636Z,9.60
2019-02-15T09:48:06.178Z,9.90
2019-02-15T09:49:10.663Z,10.30
2019-02-15T09:50:15.819Z,10.60
2019-02-15T09:51:20.283Z,11.00
2019-02-15T09:52:24.747Z,11.40
2019-02-15T09:53:29.234Z,11.80
2019-02-15T09:54:33.703Z,12.30
2019-02-15T09:55:38.208Z,12.70
2019-02-15T09:56:42.918Z,13.20
2019-02-15T09:57:47.467Z,13.60
2019-02-15T09:58:52.035Z,14.10
2019-02-15T09:59:56.507Z,14.50
2019-02-15T10:01:01.009Z,15.00
2019-02-15T10:02:05.545Z,15.40
2019-02-15T10:03:10.078Z,15.90
2019-02-15T10:04:14.621Z,16.30
2019-02-15T10:05:19.118Z,16.70
2019-02-15T10:06:23.605Z,17.10
2019-02-15T10:07:28.069Z,17.50
2019-02-15T10:08:32.579Z,17.90
2019-02-15T10:09:37.054Z,18.20
2019-02-15T10:10:41.543Z,18.60
2019-02-15T10:11:46.100Z,19.00
2019-02-15T10:12:51.027Z,19.40
2019-02-15T10:13:55.524Z,19.70
2019-02-15T10:15:00.028Z,20.10
2019-02-15T10:16:04.548Z,20.40
2019-02-15T10:17:09.016Z,20.80
2019-02-15T10:18:13.489Z,21.00
2019-02-15T10:19:22.401Z,21.40
2019-02-15T10:20:24.136Z,21.70
2019-02-15T10:21:28.636Z,22.00
2019-02-15T10:22:33.097Z,22.20
2019-02-15T10:23:37.582Z,22.50
2019-02-15T10:24:42.120Z,22.80
2019-02-15T10:25:46.602Z,23.00
2019-02-15T10:26:51.180Z,23.20
2019-02-15T10:27:55.720Z,23.50
2019-02-15T10:29:00.273Z,23.60
2019-02-15T10:30:12.755Z,23.90
2019-02-15T10:31:17.222Z,24.10
2019-02-15T10:32:21.999Z,24.20
2019-02-15T10:33:26.795Z,24.50
2019-02-15T10:34:31.267Z,24.60
2019-02-15T10:35:35.729Z,24.80
2019-02-15T10:36:40.334Z,25.00
2019-02-15T10:37:44.897Z,25.20
2019-02-15T10:38:49.707Z,25.30
2019-02-15T10:39:54.219Z,25.40
2019-02-15T10:40:58.749Z,25.50
2019-02-15T10:42:03.277Z,25.70
2019-02-15T10:43:07.746Z,25.80
2019-02-15T10:44:12.215Z,25.90
2019-02-15T10:45:16.742Z,26.00
2019-02-15T10:46:21.241Z,26.10
2019-02-15T10:47:25.806Z,26.30
2019-02-15T10:48:30.291Z,26.30
2019-02-15T10:49:34.768Z,26.50
2019-02-15T10:50:39.259Z,26.60
2019-02-15T10:51:43.893Z,26.70
2019-02-15T10:52:48.397Z,26.80
2019-02-15T10:53:53.000Z,26.90
2019-02-15T10:54:57.489Z,27.10
2019-02-15T10:56:01.969Z,27.20
2019-02-15T10:57:06.490Z,27.30
2019-02-15T10:58:11.023Z,27.40
2019-02-15T10:59:15.519Z,27.60
2019-02-15T11:00:21.608Z,27.70
2019-02-15T11:01:26.107Z,27.80
2019-02-15T11:02:30.588Z,27.90
2019-02-15T11:03:36.605Z,28.00
2019-02-15T11:04:41.355Z,28.10
2019-02-15T11:05:45.919Z,28.20
2019-02-15T11:06:50.391Z,28.30
2019-02-15T11:07:54.867Z,28.40
2019-02-15T11:08:59.414Z,28.60
2019-02-15T11:10:05.932Z,28.70
2019-02-15T11:11:10.417Z,28.80
2019-02-15T11:12:14.912Z,28.90
2019-02-15T11:13:19.391Z,29.10
2019-02-15T11:14:23.881Z,29.20
2019-02-15T11:15:28.667Z,29.30
2019-02-15T11:16:33.220Z,29.40
2019-02-15T11:17:37.688Z,29.40
2019-02-15T11:18:42.297Z,29.60
2019-02-15T11:19:46.847Z,29.60
2019-02-15T11:20:51.405Z,29.70
2019-02-15T11:21:55.885Z,29.80
2019-02-15T11:23:00.414Z,29.90
2019-02-15T11:24:04.894Z,30.00
2019-02-15T11:25:11.136Z,30.10
2019-02-15T11:26:24.400Z,30.20
2019-02-15T11:27:21.811Z,30.30
2019-02-15T11:28:26.355Z,30.40
2019-02-15T11:29:30.847Z,30.50
2019-02-15T11:30:35.602Z,30.60
2019-02-15T11:31:40.089Z,30.70
2019-02-15T11:32:44.539Z,30.80
2019-02-15T11:33:49.062Z,30.90
2019-02-15T11:34:53.530Z,30.90
2019-02-15T11:35:58.038Z,31.00
2019-02-15T11:37:02.503Z,31.10
2019-02-15T11:38:07.059Z,31.10
2019-02-15T11:39:11.513Z,31.20
2019-02-15T11:40:16.168Z,31.30
2019-02-15T11:41:20.651Z,31.40
2019-02-15T11:42:25.197Z,31.40
2019-02-15T11:43:29.667Z,31.50
2019-02-15T11:44:34.149Z,31.60
2019-02-15T11:45:38.620Z,31.60
2019-02-15T11:46:43.142Z,31.70
2019-02-15T11:47:47.636Z,31.80
2019-02-15T11:48:52.104Z,31.90
2019-02-15T11:49:56.560Z,31.90
2019-02-15T11:51:01.027Z,32.00
2019-02-15T11:52:05.519Z,32.00
2019-02-15T11:53:09.987Z,32.10
2019-02-15T11:54:23.124Z,32.20
2019-02-15T11:55:20.624Z,32.30
2019-02-15T11:56:25.082Z,32.40
2019-02-15T11:57:29.572Z,32.40
2019-02-15T11:58:34.091Z,32.50
2019-02-15T11:59:38.573Z,32.60
2019-02-15T12:00:43.029Z,32.60
2019-02-15T12:01:47.498Z,32.70
2019-02-15T12:02:52.255Z,32.80
2019-02-15T12:03:56.752Z,32.80
2019-02-15T12:05:01.233Z,32.90
2019-02-15T12:06:05.740Z,32.90
2019-02-15T12:07:10.214Z,33.00
2019-02-15T12:08:14.690Z,33.00
2019-02-15T12:09:19.179Z,33.00
2019-02-15T12:10:23.723Z,33.10
2019-02-15T12:11:28.199Z,33.10
2019-02-15T12:12:32.665Z,33.20
2019-02-15T12:13:37.208Z,33.20
2019-02-15T12:14:41.756Z,33.20
2019-02-15T12:15:46.406Z,33.20
2019-02-15T12:16:50.917Z,33.30
2019-02-15T12:17:55.383Z,33.40
2019-02-15T12:18:59.844Z,33.40
2019-02-15T12:20:06.928Z,33.50
2019-02-15T12:21:11.420Z,33.60
2019-02-15T12:22:15.883Z,33.60
2019-02-15T12:23:20.363Z,33.70
2019-02-15T12:24:24.813Z,33.70
2019-02-15T12:25:29.289Z,33.80
2019-02-15T12:26:33.788Z,33.80
2019-02-15T12:27:38.304Z,33.90
2019-02-15T12:28:42.830Z,34.00
2019-02-15T12:29:47.432Z,34.00
2019-02-15T12:30:52.168Z,34.10
2019-02-15T12:31:56.633Z,34.10
2019-02-15T12:33:01.103Z,34.20
2019-02-15T12:34:07.319Z,34.30
2019-02-15T12:35:11.994Z,34.30
2019-02-15T12:36:16.877Z,34.40
2019-02-15T12:37:21.402Z,34.50
2019-02-15T12:38:25.893Z,34.50
2019-02-15T12:39:30.346Z,34.60
2019-02-15T12:40:34.805Z,34.60
2019-02-15T12:41:39.343Z,34.60
2019-02-15T12:42:43.808Z,34.60
2019-02-15T12:43:48.353Z,34.70
2019-02-15T12:44:52.864Z,34.80
2019-02-15T12:45:57.388Z,34.80
2019-02-15T12:47:01.956Z,34.90
2019-02-15T12:48:06.411Z,34.90
2019-02-15T12:49:10.902Z,34.90
2019-02-15T12:50:20.274Z,34.90
2019-02-15T12:51:24.769Z,35.00
2019-02-15T12:52:29.334Z,35.00
2019-02-15T12:53:33.884Z,35.00
2019-02-15T12:54:38.353Z,35.00
2019-02-15T12:55:42.823Z,35.00
2019-02-15T12:56:47.369Z,35.00
2019-02-15T12:57:51.864Z,35.00
2019-02-15T12:58:56.329Z,35.00
2019-02-15T13:00:00.803Z,35.00
2019-02-15T13:01:05.267Z,35.00
2019-02-15T13:02:09.743Z,35.00
2019-02-15T13:03:14.249Z,35.00
2019-02-15T13:04:18.709Z,35.00
2019-02-15T13:05:23.190Z,35.10
2019-02-15T13:06:28.913Z,35.10
2019-02-15T13:07:33.630Z,35.10
2019-02-15T13:08:38.159Z,35.20
2019-02-15T13:09:42.697Z,35.20
2019-02-15T13:10:47.176Z,35.20
2019-02-15T13:11:51.655Z,35.30
2019-02-15T13:12:56.148Z,35.30
2019-02-15T13:14:00.610Z,35.30
2019-02-15T13:15:06.643Z,35.40
2019-02-15T13:16:11.164Z,35.50
2019-02-15T13:17:24.198Z,35.50
2019-02-15T13:18:21.871Z,35.60
2019-02-15T13:19:26.331Z,35.60
2019-02-15T13:20:30.874Z,35.70
2019-02-15T13:21:35.347Z,35.70
2019-02-15T13:22:39.906Z,35.70
2019-02-15T13:23:44.385Z,35.70
2019-02-15T13:24:48.881Z,35.80
2019-02-15T13:25:53.447Z,35.80
2019-02-15T13:26:58.019Z,35.80
2019-02-15T13:28:02.495Z,35.80
2019-02-15T13:29:06.971Z,35.80
2019-02-15T13:30:16.029Z,35.80
2019-02-15T13:31:20.521Z,35.80
2019-02-15T13:32:25.000Z,35.80
2019-02-15T13:33:29.468Z,35.80
2019-02-15T13:34:33.938Z,35.80
2019-02-15T13:35:38.398Z,35.80
2019-02-15T13:36:42.880Z,35.80
2019-02-15T13:37:47.371Z,35.80
2019-02-15T13:38:51.872Z,35.80
2019-02-15T13:39:56.438Z,35.80
2019-02-15T13:41:00.919Z,35.80
2019-02-15T13:43:09.373Z,35.80
2019-02-15T13:44:14.155Z,35.80
2019-02-15T13:45:18.712Z,35.80
2019-02-15T13:46:23.182Z,35.80
2019-02-15T13:47:34.303Z,35.80
2019-02-15T13:48:33.831Z,35.80
2019-02-15T13:49:38.298Z,35.80
2019-02-15T13:50:42.808Z,35.90
2019-02-15T13:51:47.275Z,35.90
2019-02-15T13:52:51.743Z,35.90
2019-02-15T13:53:56.206Z,35.90
2019-02-15T13:55:00.673Z,35.90
2019-02-15T13:56:05.219Z,35.90
2019-02-15T13:57:09.706Z,35.90
2019-02-15T13:58:14.164Z,35.90
2019-02-15T13:59:18.635Z,35.90
2019-02-15T14:00:23.105Z,35.90
2019-02-15T14:01:27.577Z,36.00
2019-02-15T14:02:32.367Z,36.00
2019-02-15T14:03:36.884Z,36.00
2019-02-15T14:04:41.352Z,36.00
2019-02-15T14:05:45.825Z,36.00
2019-02-15T14:06:55.394Z,36.10
2019-02-15T14:07:59.937Z,36.10
2019-02-15T14:09:05.363Z,36.10
2019-02-15T14:10:11.475Z,36.10
2019-02-15T14:11:15.946Z,36.10
2019-02-15T14:12:20.439Z,36.10
2019-02-15T14:13:24.989Z,36.10
2019-02-15T14:14:29.529Z,36.10
2019-02-15T14:15:33.997Z,36.10
2019-02-15T14:16:38.571Z,36.10
2019-02-15T14:17:46.380Z,36.10
2019-02-15T14:18:49.257Z,36.00